Time;durP1;ratioP1;P1;durP2;ratioP2;P2;SDS_P1;SDS_P2;PMS_P1;PMS_P2;Temp;Humidity;BMP_temperature;BMP_pressure;BME280_temperature;BME280_humidity;BME280_pressure;Samples;Min_cycle;Max_cycle;Signal;HPM_P1;HPM_P2
2024/04/14 00:01:51;;;;;;;;;;;18.50;99.90;;;;;;5360749;26;19937;-80
2024/04/14 00:04:16;;;;;;;;;;;18.40;99.90;;;;;;5358731;26;19929;-79
2024/04/14 00:06:42;;;;;;;;;;;18.40;99.90;;;;;;5361157;26;19929;-79
2024/04/14 00:09:08;;;;;;;;;;;18.40;99.90;;;;;;5331257;26;19929;-80
2024/04/14 00:11:33;;;;;;;;;;;18.40;99.90;;;;;;5360639;26;19929;-79
2024/04/14 00:13:59;;;;;;;;;;;18.40;99.90;;;;;;5422742;26;20007;-80
2024/04/14 00:16:25;;;;;;;;;;;18.40;99.90;;;;;;5355761;26;19929;-80
2024/04/14 00:21:52;;;;;;;;;;;18.50;99.90;;;;;;5389606;21;19974;-78
2024/04/14 00:24:18;;;;;;;;;;;18.50;99.90;;;;;;5359234;26;19930;-79
2024/04/14 00:26:46;;;;;;;;;;;18.50;99.90;;;;;;5356389;26;20517;-79
2024/04/14 00:29:11;;;;;;;;;;;18.50;99.90;;;;;;5295213;26;19953;-79
2024/04/14 00:31:37;;;;;;;;;;;18.50;99.90;;;;;;5350631;26;19995;-79
2024/04/14 00:34:04;;;;;;;;;;;18.40;99.90;;;;;;5389575;26;19936;-79
2024/04/14 00:36:30;;;;;;;;;;;18.50;99.90;;;;;;5353123;26;19945;-79
2024/04/14 00:38:55;;;;;;;;;;;18.40;99.90;;;;;;5327155;26;19929;-79
2024/04/14 00:41:21;;;;;;;;;;;18.40;99.90;;;;;;5323306;26;19930;-81
2024/04/14 00:43:46;;;;;;;;;;;18.50;99.90;;;;;;5325761;26;20353;-79
2024/04/14 00:46:12;;;;;;;;;;;18.50;99.90;;;;;;5325998;26;19937;-79
2024/04/14 00:48:38;;;;;;;;;;;18.50;99.90;;;;;;5322554;26;20426;-79
2024/04/14 00:51:04;;;;;;;;;;;18.40;99.90;;;;;;5295289;26;19954;-79
2024/04/14 00:53:31;;;;;;;;;;;18.40;99.90;;;;;;5362483;26;19937;-79
2024/04/14 00:55:57;;;;;;;;;;;18.40;99.90;;;;;;5305810;26;19975;-79
2024/04/14 00:58:23;;;;;;;;;;;18.40;99.90;;;;;;5390581;26;19930;-79
2024/04/14 01:00:48;;;;;;;;;;;18.40;99.90;;;;;;5304530;26;20361;-79
2024/04/14 01:03:14;;;;;;;;;;;18.40;99.90;;;;;;5298251;26;19937;-79
2024/04/14 01:05:39;;;;;;;;;;;18.40;99.90;;;;;;5356053;26;20018;-79
2024/04/14 01:08:17;;;;;;;;;;;18.40;99.90;;;;;;5325156;26;19929;-79
2024/04/14 01:10:43;;;;;;;;;;;18.40;99.90;;;;;;5315722;26;19930;-79
2024/04/14 01:13:09;;;;;;;;;;;18.40;99.90;;;;;;5337775;26;20420;-78
2024/04/14 01:15:34;;;;;;;;;;;18.30;99.90;;;;;;5401951;26;19995;-79
2024/04/14 01:18:00;;;;;;;;;;;18.40;99.90;;;;;;5354927;26;19930;-79
2024/04/14 01:20:27;;;;;;;;;;;18.40;99.90;;;;;;5378736;26;19934;-79
2024/04/14 01:22:53;;;;;;;;;;;18.40;99.90;;;;;;5323459;26;20352;-79
2024/04/14 01:25:18;;;;;;;;;;;18.40;99.90;;;;;;5315254;26;19930;-79
2024/04/14 01:27:44;;;;;;;;;;;18.40;99.90;;;;;;5306206;26;19940;-79
2024/04/14 01:30:10;;;;;;;;;;;18.40;99.90;;;;;;5351996;26;20270;-79
2024/04/14 01:32:39;;;;;;;;;;;18.30;99.90;;;;;;5351476;26;19929;-79
2024/04/14 01:35:05;;;;;;;;;;;18.30;99.90;;;;;;5351678;26;19996;-79
2024/04/14 01:37:30;;;;;;;;;;;18.20;99.90;;;;;;5322567;26;19929;-79
2024/04/14 01:39:56;;;;;;;;;;;18.00;99.90;;;;;;5345758;26;19930;-79
2024/04/14 01:42:22;;;;;;;;;;;18.00;99.90;;;;;;5347534;26;19942;-79
2024/04/14 01:44:48;;;;;;;;;;;18.00;99.90;;;;;;5356884;26;19957;-79
2024/04/14 01:47:14;;;;;;;;;;;17.90;99.90;;;;;;5317064;26;19941;-79
2024/04/14 01:49:39;;;;;;;;;;;17.80;99.90;;;;;;5288977;26;19938;-79
2024/04/14 01:52:05;;;;;;;;;;;17.70;99.90;;;;;;5344626;26;19941;-79
2024/04/14 01:54:31;;;;;;;;;;;17.70;99.90;;;;;;5350394;26;19929;-79
2024/04/14 01:56:57;;;;;;;;;;;17.70;99.90;;;;;;5314941;26;19937;-79
2024/04/14 01:59:22;;;;;;;;;;;17.60;99.90;;;;;;5334727;26;20350;-79
2024/04/14 02:01:48;;;;;;;;;;;17.50;99.90;;;;;;5316600;26;19930;-79
2024/04/14 02:04:14;;;;;;;;;;;17.50;99.90;;;;;;5294045;26;19936;-79
2024/04/14 02:06:40;;;;;;;;;;;17.40;99.90;;;;;;5296848;26;20346;-79
2024/04/14 02:09:05;;;;;;;;;;;17.40;99.90;;;;;;5351687;26;19938;-79
2024/04/14 02:11:31;;;;;;;;;;;17.30;99.90;;;;;;5318376;26;20356;-80
2024/04/14 02:13:57;;;;;;;;;;;17.20;99.90;;;;;;5353284;26;19929;-79
2024/04/14 02:16:23;;;;;;;;;;;17.20;99.90;;;;;;5321418;26;19940;-79
2024/04/14 02:18:48;;;;;;;;;;;17.10;99.90;;;;;;5303261;26;19938;-79
2024/04/14 02:21:14;;;;;;;;;;;17.10;99.90;;;;;;5323802;26;20334;-79
2024/04/14 02:23:40;;;;;;;;;;;17.00;99.90;;;;;;5352094;26;20342;-79
2024/04/14 02:26:06;;;;;;;;;;;17.00;99.90;;;;;;5304954;26;19937;-79
2024/04/14 02:28:32;;;;;;;;;;;16.90;99.90;;;;;;5351144;26;19958;-79
2024/04/14 02:30:58;;;;;;;;;;;16.80;99.90;;;;;;5352215;26;19941;-79
2024/04/14 02:33:24;;;;;;;;;;;16.80;99.90;;;;;;5318476;26;19996;-79
2024/04/14 02:36:02;;;;;;;;;;;16.70;99.90;;;;;;5317404;26;19938;-79
2024/04/14 02:38:28;;;;;;;;;;;16.70;99.90;;;;;;5321674;26;19929;-79
2024/04/14 02:41:03;;;;;;;;;;;16.70;99.90;;;;;;5379364;26;19936;-79
2024/04/14 02:43:29;;;;;;;;;;;16.70;99.90;;;;;;5317395;26;19930;-79
2024/04/14 02:45:55;;;;;;;;;;;16.60;99.90;;;;;;5313174;26;20357;-79
2024/04/14 02:48:20;;;;;;;;;;;16.50;99.90;;;;;;5346043;26;19941;-79
2024/04/14 02:50:46;;;;;;;;;;;16.40;99.90;;;;;;5351789;26;19930;-79
2024/04/14 02:53:12;;;;;;;;;;;16.30;99.90;;;;;;5317609;26;19944;-79
2024/04/14 02:55:38;;;;;;;;;;;16.20;99.90;;;;;;5293305;26;19996;-79
2024/04/14 02:58:04;;;;;;;;;;;16.20;99.90;;;;;;5352494;26;19966;-79
2024/04/14 03:00:29;;;;;;;;;;;16.10;99.90;;;;;;5315060;26;20350;-79
2024/04/14 03:02:55;;;;;;;;;;;16.10;99.90;;;;;;5323240;26;19958;-79
2024/04/14 03:05:21;;;;;;;;;;;16.00;99.90;;;;;;5298486;26;19937;-79
2024/04/14 03:07:47;;;;;;;;;;;16.00;99.90;;;;;;5316426;26;19938;-79
2024/04/14 03:10:13;;;;;;;;;;;16.00;99.90;;;;;;5376187;26;19930;-79
2024/04/14 03:12:39;;;;;;;;;;;15.90;99.90;;;;;;5284199;26;19966;-79
2024/04/14 03:15:05;;;;;;;;;;;15.90;99.90;;;;;;5319452;26;19937;-79
2024/04/14 03:17:31;;;;;;;;;;;15.90;99.90;;;;;;5320838;26;19930;-79
2024/04/14 03:19:57;;;;;;;;;;;15.80;99.90;;;;;;5316196;26;19941;-79
2024/04/14 03:22:22;;;;;;;;;;;15.70;99.90;;;;;;5345386;26;19930;-79
2024/04/14 03:24:48;;;;;;;;;;;15.70;99.90;;;;;;5322449;26;19929;-79
2024/04/14 03:27:14;;;;;;;;;;;15.60;99.90;;;;;;5328121;26;19929;-79
2024/04/14 03:29:39;;;;;;;;;;;15.60;99.90;;;;;;5322102;26;19930;-79
2024/04/14 03:32:06;;;;;;;;;;;15.60;99.90;;;;;;5316630;26;20342;-79
2024/04/14 03:34:31;;;;;;;;;;;15.60;99.90;;;;;;5338616;26;19937;-79
2024/04/14 03:36:57;;;;;;;;;;;15.60;99.90;;;;;;5315474;26;19930;-79
2024/04/14 03:39:22;;;;;;;;;;;15.50;99.90;;;;;;5364671;26;19930;-79
2024/04/14 03:41:48;;;;;;;;;;;15.50;99.90;;;;;;5350863;26;19937;-79
2024/04/14 03:44:14;;;;;;;;;;;15.40;99.90;;;;;;5350723;26;19933;-79
2024/04/14 03:46:39;;;;;;;;;;;15.50;99.90;;;;;;5351065;26;19938;-79
2024/04/14 03:49:05;;;;;;;;;;;15.40;99.90;;;;;;5322586;26;19929;-79
2024/04/14 03:51:31;;;;;;;;;;;15.40;99.90;;;;;;5352939;26;19938;-79
2024/04/14 03:53:56;;;;;;;;;;;15.30;99.90;;;;;;5352377;26;19941;-79
2024/04/14 03:56:22;;;;;;;;;;;15.20;99.90;;;;;;5318658;26;19937;-79
2024/04/14 03:58:49;;;;;;;;;;;15.30;99.90;;;;;;5329738;26;19930;-79
2024/04/14 04:01:14;;;;;;;;;;;15.30;99.90;;;;;;5321207;26;19938;-79
2024/04/14 04:03:40;;;;;;;;;;;15.30;99.90;;;;;;5325651;26;19945;-79
2024/04/14 04:06:06;;;;;;;;;;;15.20;99.90;;;;;;5319278;26;19930;-79
2024/04/14 04:08:31;;;;;;;;;;;15.20;99.90;;;;;;5324660;26;19949;-79
2024/04/14 04:11:02;;;;;;;;;;;15.20;99.90;;;;;;5348336;26;20243;-79
2024/04/14 04:13:28;;;;;;;;;;;15.20;99.90;;;;;;5342048;26;19930;-79
2024/04/14 04:16:00;;;;;;;;;;;15.20;99.90;;;;;;5315689;26;19937;-79
2024/04/14 04:18:26;;;;;;;;;;;15.20;99.90;;;;;;5324780;26;19936;-79
2024/04/14 04:20:55;;;;;;;;;;;15.20;99.90;;;;;;5291284;26;19958;-79
2024/04/14 04:23:20;;;;;;;;;;;15.20;99.90;;;;;;5353870;26;19930;-79
2024/04/14 04:25:46;;;;;;;;;;;15.20;99.90;;;;;;5313452;26;19954;-79
2024/04/14 04:28:12;;;;;;;;;;;15.30;99.90;;;;;;5290664;26;19930;-79
2024/04/14 04:30:37;;;;;;;;;;;15.20;99.90;;;;;;5297734;26;19954;-79
2024/04/14 04:33:03;;;;;;;;;;;15.20;99.90;;;;;;5353674;26;20352;-79
2024/04/14 04:35:28;;;;;;;;;;;15.20;99.90;;;;;;5325142;26;19934;-79
2024/04/14 04:37:54;;;;;;;;;;;15.10;99.90;;;;;;5354580;26;19930;-79
2024/04/14 04:40:21;;;;;;;;;;;15.10;99.90;;;;;;5325243;26;19941;-78
2024/04/14 04:42:47;;;;;;;;;;;15.10;99.90;;;;;;5304615;26;19930;-79
2024/04/14 04:45:13;;;;;;;;;;;15.00;99.90;;;;;;5324515;26;19934;-79
2024/04/14 04:47:39;;;;;;;;;;;15.10;99.90;;;;;;5344344;26;19929;-79
2024/04/14 04:50:04;;;;;;;;;;;15.10;99.90;;;;;;5324929;26;19941;-79
2024/04/14 04:52:30;;;;;;;;;;;15.00;99.90;;;;;;5324995;26;19929;-79
2024/04/14 04:54:56;;;;;;;;;;;15.00;99.90;;;;;;5326160;26;20648;-79
2024/04/14 04:57:21;;;;;;;;;;;15.00;99.90;;;;;;5353452;26;20346;-79
2024/04/14 04:59:47;;;;;;;;;;;15.00;99.90;;;;;;5353665;26;19958;-79
2024/04/14 05:02:12;;;;;;;;;;;15.00;99.90;;;;;;5319730;26;19996;-79
2024/04/14 05:04:38;;;;;;;;;;;14.90;99.90;;;;;;5325112;26;19940;-79
2024/04/14 05:07:05;;;;;;;;;;;14.90;99.90;;;;;;5383731;26;19938;-79
2024/04/14 05:09:31;;;;;;;;;;;15.00;99.90;;;;;;5290320;26;19961;-79
2024/04/14 05:11:57;;;;;;;;;;;15.00;99.90;;;;;;5280873;26;19936;-79
2024/04/14 05:14:23;;;;;;;;;;;14.90;99.90;;;;;;5323960;26;19957;-79
2024/04/14 05:16:49;;;;;;;;;;;14.90;99.90;;;;;;5324060;26;20000;-79
2024/04/14 05:19:14;;;;;;;;;;;14.90;99.90;;;;;;5347204;26;20246;-79
2024/04/14 05:21:40;;;;;;;;;;;14.80;99.90;;;;;;5311237;26;20353;-79
2024/04/14 05:24:07;;;;;;;;;;;14.90;99.90;;;;;;5352965;26;19980;-79
2024/04/14 05:26:33;;;;;;;;;;;14.80;99.90;;;;;;5325241;26;19996;-79
2024/04/14 05:28:59;;;;;;;;;;;14.80;99.90;;;;;;5352324;26;19937;-79
2024/04/14 05:31:25;;;;;;;;;;;14.70;99.90;;;;;;5346151;26;19942;-79
2024/04/14 05:33:51;;;;;;;;;;;14.60;99.90;;;;;;5373714;26;19962;-79
2024/04/14 05:36:16;;;;;;;;;;;14.60;99.90;;;;;;5289276;26;19941;-79
2024/04/14 05:38:44;;;;;;;;;;;14.50;99.90;;;;;;5371541;26;19996;-79
2024/04/14 05:41:10;;;;;;;;;;;14.40;99.90;;;;;;5383470;26;19930;-79
2024/04/14 05:43:36;;;;;;;;;;;14.30;99.90;;;;;;5349647;26;20003;-79
2024/04/14 05:46:01;;;;;;;;;;;14.30;99.90;;;;;;5353587;26;19929;-79
2024/04/14 05:48:27;;;;;;;;;;;14.20;99.90;;;;;;5293035;26;19930;-79
2024/04/14 05:50:53;;;;;;;;;;;14.20;99.90;;;;;;5350537;26;19936;-79
2024/04/14 05:53:18;;;;;;;;;;;14.30;99.90;;;;;;5352410;26;19936;-79
2024/04/14 05:55:44;;;;;;;;;;;14.20;99.90;;;;;;5331326;26;19958;-79
2024/04/14 05:58:09;;;;;;;;;;;14.20;99.90;;;;;;5289796;26;19941;-79
2024/04/14 06:00:35;;;;;;;;;;;14.20;99.90;;;;;;5294346;26;22351;-79
2024/04/14 06:03:01;;;;;;;;;;;14.20;99.90;;;;;;5302132;26;19933;-79
2024/04/14 06:05:27;;;;;;;;;;;14.20;99.90;;;;;;5323904;26;19937;-80
2024/04/14 06:07:52;;;;;;;;;;;14.10;99.90;;;;;;5347574;26;20394;-79
2024/04/14 06:10:18;;;;;;;;;;;14.20;99.90;;;;;;5292072;26;20321;-79
2024/04/14 06:12:44;;;;;;;;;;;14.20;99.90;;;;;;5341738;26;20428;-79
2024/04/14 06:15:09;;;;;;;;;;;14.20;99.90;;;;;;5382385;26;19934;-79
2024/04/14 06:17:35;;;;;;;;;;;14.10;99.90;;;;;;5323035;26;19996;-79
2024/04/14 06:20:01;;;;;;;;;;;14.10;99.90;;;;;;5345154;26;19984;-79
2024/04/14 06:22:27;;;;;;;;;;;14.10;99.90;;;;;;5317060;26;20406;-79
2024/04/14 06:24:53;;;;;;;;;;;14.20;99.90;;;;;;5288484;26;19934;-79
2024/04/14 06:27:18;;;;;;;;;;;14.10;99.90;;;;;;5288633;26;19934;-79
2024/04/14 06:29:44;;;;;;;;;;;14.20;99.90;;;;;;5292489;26;19929;-79
2024/04/14 06:32:10;;;;;;;;;;;14.20;99.90;;;;;;5351665;26;19958;-79
2024/04/14 06:34:36;;;;;;;;;;;14.30;99.90;;;;;;5352537;26;20249;-79
2024/04/14 06:37:01;;;;;;;;;;;14.30;99.90;;;;;;5294771;26;19929;-79
2024/04/14 06:39:27;;;;;;;;;;;14.30;99.90;;;;;;5322921;26;20336;-79
2024/04/14 06:41:53;;;;;;;;;;;14.30;99.90;;;;;;5273791;26;20022;-79
2024/04/14 06:44:18;;;;;;;;;;;14.30;99.90;;;;;;5295063;26;19930;-79
2024/04/14 06:46:44;;;;;;;;;;;14.20;99.90;;;;;;5322042;26;20018;-79
2024/04/14 06:49:09;;;;;;;;;;;14.10;99.90;;;;;;5322205;26;20032;-79
2024/04/14 06:51:37;;;;;;;;;;;14.10;99.90;;;;;;5293772;26;21605;-79
2024/04/14 06:54:03;;;;;;;;;;;14.00;99.90;;;;;;5352184;26;20017;-79
2024/04/14 06:56:35;;;;;;;;;;;14.10;99.90;;;;;;5337509;26;19925;-82
2024/04/14 07:39:33;;;;;;;;;;;14.30;99.90;;;;;;5439562;26;19933;-79
2024/04/14 09:21:33;;;;;;;;;;;14.70;99.90;;;;;;6479469;21;19933;-80
2024/04/14 09:24:05;;;;;;;;;;;14.80;99.80;;;;;;5281135;26;19923;-81
2024/04/14 09:50:31;;;;;;;;;;;15.00;98.30;;;;;;5472191;21;19929;-80
2024/04/14 09:53:00;;;;;;;;;;;14.70;97.60;;;;;;5286402;26;19937;-81
2024/04/14 10:00:38;;;;;;;;;;;14.90;98.70;;;;;;5438335;21;19946;-80
2024/04/14 10:03:04;;;;;;;;;;;14.90;97.90;;;;;;5323164;27;19937;-80
2024/04/14 10:05:30;;;;;;;;;;;15.00;98.00;;;;;;5238882;27;19946;-80
2024/04/14 10:07:56;;;;;;;;;;;14.90;97.80;;;;;;5256485;27;19930;-80
2024/04/14 10:10:24;;;;;;;;;;;15.00;96.60;;;;;;5302712;26;19930;-80
2024/04/14 10:12:53;;;;;;;;;;;14.90;97.30;;;;;;5290356;26;19936;-80
2024/04/14 10:15:23;;;;;;;;;;;14.90;97.50;;;;;;5294746;27;19977;-80
2024/04/14 10:18:04;;;;;;;;;;;14.70;97.90;;;;;;5313068;26;19970;-80
2024/04/14 10:20:39;;;;;;;;;;;14.80;98.10;;;;;;5268756;27;19942;-80
2024/04/14 10:23:05;;;;;;;;;;;14.90;97.30;;;;;;5297617;27;19935;-80
2024/04/14 10:25:31;;;;;;;;;;;14.90;97.10;;;;;;5296088;27;19963;-79
2024/04/14 10:27:57;;;;;;;;;;;14.90;96.30;;;;;;5266306;27;19957;-78
2024/04/14 10:30:22;;;;;;;;;;;14.90;96.40;;;;;;5267822;27;19922;-78
2024/04/14 10:32:59;;;;;;;;;;;14.90;95.40;;;;;;5269711;26;19978;-78
2024/04/14 10:35:25;;;;;;;;;;;14.90;95.50;;;;;;5299491;27;19931;-80
2024/04/14 10:37:54;;;;;;;;;;;14.80;95.80;;;;;;5299034;27;20250;-80
2024/04/14 10:40:20;;;;;;;;;;;15.00;95.10;;;;;;5321077;27;19937;-81
2024/04/14 10:42:47;;;;;;;;;;;14.90;95.00;;;;;;5322343;27;19922;-80
2024/04/14 10:45:12;;;;;;;;;;;15.00;95.80;;;;;;5322540;26;19930;-80
2024/04/14 10:47:39;;;;;;;;;;;15.10;96.10;;;;;;5283075;27;19930;-80
2024/04/14 10:50:05;;;;;;;;;;;15.00;95.70;;;;;;5327561;27;19922;-80
2024/04/14 10:52:31;;;;;;;;;;;15.00;95.50;;;;;;5275480;27;19929;-80
2024/04/14 10:54:57;;;;;;;;;;;15.00;95.70;;;;;;5336266;26;19930;-80
2024/04/14 10:57:23;;;;;;;;;;;15.00;94.60;;;;;;5326886;27;19923;-80
2024/04/14 10:59:48;;;;;;;;;;;14.90;94.20;;;;;;5292157;27;19930;-80
2024/04/14 11:02:14;;;;;;;;;;;15.00;95.10;;;;;;5303320;26;19930;-80
2024/04/14 11:04:40;;;;;;;;;;;15.10;94.40;;;;;;5332316;26;19958;-80
2024/04/14 11:07:05;;;;;;;;;;;15.10;93.90;;;;;;5322802;26;19977;-81
2024/04/14 11:09:31;;;;;;;;;;;15.10;94.20;;;;;;5284625;27;19938;-79
2024/04/14 11:11:57;;;;;;;;;;;15.10;94.50;;;;;;5298345;26;19930;-80
2024/04/14 11:14:22;;;;;;;;;;;15.20;94.40;;;;;;5305507;26;19926;-80
2024/04/14 11:16:48;;;;;;;;;;;15.40;94.70;;;;;;5313322;26;19970;-80
2024/04/14 11:19:14;;;;;;;;;;;15.50;93.20;;;;;;5284791;27;20326;-80
2024/04/14 11:21:39;;;;;;;;;;;15.60;93.60;;;;;;5308367;26;19937;-80
2024/04/14 11:24:08;;;;;;;;;;;15.70;92.80;;;;;;5278832;26;19922;-80
2024/04/14 11:26:34;;;;;;;;;;;15.70;93.10;;;;;;5289594;27;19930;-80
2024/04/14 11:28:59;;;;;;;;;;;15.80;92.20;;;;;;5283334;27;19938;-80
2024/04/14 11:31:25;;;;;;;;;;;15.60;91.60;;;;;;5284647;27;19938;-80
2024/04/14 11:33:53;;;;;;;;;;;15.70;87.00;;;;;;5232263;27;19931;-80
2024/04/14 11:36:19;;;;;;;;;;;15.70;87.10;;;;;;5293947;26;19937;-80
2024/04/14 11:38:51;;;;;;;;;;;15.70;86.90;;;;;;5296011;26;19930;-80
2024/04/14 11:41:17;;;;;;;;;;;15.70;88.20;;;;;;5295292;26;19936;-80
2024/04/14 11:43:43;;;;;;;;;;;15.60;85.00;;;;;;5315399;26;20263;-77
2024/04/14 11:46:16;;;;;;;;;;;15.50;86.70;;;;;;5279817;26;19942;-77
2024/04/14 11:48:43;;;;;;;;;;;15.80;85.10;;;;;;5225287;27;19945;-77
2024/04/14 11:51:09;;;;;;;;;;;15.50;81.60;;;;;;5252730;27;19930;-77
2024/04/14 11:53:35;;;;;;;;;;;15.70;80.10;;;;;;5224496;27;19957;-77
2024/04/14 11:56:01;;;;;;;;;;;15.80;83.10;;;;;;5308675;26;19945;-77
2024/04/14 11:58:27;;;;;;;;;;;16.00;83.90;;;;;;5258177;26;20063;-77
2024/04/14 12:00:53;;;;;;;;;;;16.10;84.00;;;;;;5321034;26;19936;-78
2024/04/14 12:03:18;;;;;;;;;;;16.10;83.40;;;;;;5315375;27;19934;-78
2024/04/14 12:05:44;;;;;;;;;;;16.00;84.70;;;;;;5279700;26;20426;-78
2024/04/14 12:08:10;;;;;;;;;;;15.90;85.60;;;;;;5330259;26;19936;-80
2024/04/14 12:10:36;;;;;;;;;;;16.00;86.90;;;;;;5310262;27;19978;-80
2024/04/14 12:13:02;;;;;;;;;;;16.00;87.20;;;;;;5285823;26;19934;-80
2024/04/14 12:15:27;;;;;;;;;;;16.20;88.50;;;;;;5256690;27;20250;-80
2024/04/14 12:17:53;;;;;;;;;;;16.10;85.50;;;;;;5254442;27;19934;-80
2024/04/14 12:20:18;;;;;;;;;;;15.90;80.30;;;;;;5258595;27;19931;-80
2024/04/14 12:22:44;;;;;;;;;;;15.90;83.80;;;;;;5289219;27;19939;-80
2024/04/14 12:25:10;;;;;;;;;;;15.90;85.10;;;;;;5229509;27;19938;-80
2024/04/14 12:27:35;;;;;;;;;;;15.90;86.90;;;;;;5256395;27;19942;-80
2024/04/14 12:30:01;;;;;;;;;;;16.20;86.10;;;;;;5339704;26;19930;-80
2024/04/14 12:32:27;;;;;;;;;;;16.40;84.10;;;;;;5312685;27;20041;-80
2024/04/14 12:34:52;;;;;;;;;;;16.20;82.90;;;;;;5284761;26;20532;-79
2024/04/14 12:37:18;;;;;;;;;;;16.30;82.40;;;;;;5313084;27;19931;-80
2024/04/14 12:39:44;;;;;;;;;;;16.30;81.20;;;;;;5313318;26;20415;-80
2024/04/14 12:42:09;;;;;;;;;;;16.30;81.20;;;;;;5312964;27;20259;-80
2024/04/14 12:44:35;;;;;;;;;;;16.40;81.80;;;;;;5266815;26;19935;-80
2024/04/14 12:47:02;;;;;;;;;;;16.50;83.20;;;;;;5277044;26;20372;-80
2024/04/14 12:49:28;;;;;;;;;;;16.50;83.50;;;;;;5275475;26;20083;-80
2024/04/14 12:51:53;;;;;;;;;;;16.40;83.40;;;;;;5278103;26;19934;-80
2024/04/14 12:54:20;;;;;;;;;;;16.40;81.90;;;;;;5281387;26;19938;-80
2024/04/14 12:56:46;;;;;;;;;;;16.60;84.50;;;;;;5277924;27;19938;-81
2024/04/14 12:59:12;;;;;;;;;;;16.80;84.70;;;;;;5246829;27;19931;-81
2024/04/14 13:01:37;;;;;;;;;;;16.80;84.40;;;;;;5298619;27;19942;-81
2024/04/14 13:04:03;;;;;;;;;;;16.80;84.90;;;;;;5268177;27;19970;-81
2024/04/14 13:06:29;;;;;;;;;;;17.00;83.30;;;;;;5270405;27;19931;-80
2024/04/14 13:08:59;;;;;;;;;;;17.10;83.10;;;;;;5279738;27;19931;-80
2024/04/14 13:11:25;;;;;;;;;;;17.30;81.30;;;;;;5262746;27;20339;-80
2024/04/14 13:13:54;;;;;;;;;;;17.20;79.60;;;;;;5276810;27;19942;-80
2024/04/14 13:16:20;;;;;;;;;;;17.00;78.50;;;;;;5262252;27;19930;-80
2024/04/14 13:18:47;;;;;;;;;;;17.20;80.10;;;;;;5263656;27;20356;-80
2024/04/14 13:21:17;;;;;;;;;;;17.40;80.40;;;;;;5291772;27;19938;-79
2024/04/14 13:23:46;;;;;;;;;;;17.30;78.90;;;;;;5315056;26;19930;-79
2024/04/14 13:26:15;;;;;;;;;;;17.30;76.80;;;;;;5294533;26;19951;-78
2024/04/14 13:28:48;;;;;;;;;;;17.60;77.90;;;;;;5288846;27;19997;-78
2024/04/14 13:31:13;;;;;;;;;;;17.50;78.60;;;;;;5295871;27;19930;-78
2024/04/14 13:33:43;;;;;;;;;;;17.60;78.80;;;;;;5264996;27;19938;-78
2024/04/14 13:36:09;;;;;;;;;;;17.50;76.30;;;;;;5274172;27;20276;-80
2024/04/14 13:38:35;;;;;;;;;;;17.60;76.70;;;;;;5272808;26;19930;-80
2024/04/14 13:41:05;;;;;;;;;;;17.50;76.20;;;;;;5289394;27;19931;-80
2024/04/14 13:43:34;;;;;;;;;;;17.40;76.20;;;;;;5251026;27;19931;-80
2024/04/14 13:45:59;;;;;;;;;;;17.30;75.60;;;;;;5272329;26;19941;-80
2024/04/14 13:48:28;;;;;;;;;;;17.40;75.70;;;;;;5318552;27;20283;-80
2024/04/14 13:50:57;;;;;;;;;;;17.50;75.60;;;;;;5260856;27;19942;-81
2024/04/14 13:53:23;;;;;;;;;;;17.60;75.10;;;;;;5295825;26;19931;-80
2024/04/14 13:55:48;;;;;;;;;;;17.40;75.50;;;;;;5291274;27;19937;-80
2024/04/14 13:58:19;;;;;;;;;;;17.40;75.30;;;;;;5305656;26;19950;-80
2024/04/14 14:00:46;;;;;;;;;;;17.60;76.00;;;;;;5322372;26;19977;-80
2024/04/14 14:03:12;;;;;;;;;;;17.40;74.80;;;;;;5317518;27;19962;-80
2024/04/14 14:05:41;;;;;;;;;;;17.30;73.70;;;;;;5260956;27;19931;-80
2024/04/14 14:08:07;;;;;;;;;;;17.20;74.80;;;;;;5241219;27;20026;-80
2024/04/14 14:10:39;;;;;;;;;;;17.20;74.40;;;;;;5304713;26;19937;-80
2024/04/14 14:13:07;;;;;;;;;;;17.40;75.70;;;;;;5343539;26;19922;-79
2024/04/14 14:15:32;;;;;;;;;;;17.70;75.30;;;;;;5344071;26;19968;-79
2024/04/14 14:17:58;;;;;;;;;;;17.80;75.00;;;;;;5315146;26;19925;-79
2024/04/14 14:20:24;;;;;;;;;;;18.20;74.80;;;;;;5286903;26;19922;-80
2024/04/14 14:22:50;;;;;;;;;;;18.00;72.50;;;;;;5314899;26;19949;-80
2024/04/14 14:25:15;;;;;;;;;;;18.20;73.50;;;;;;5343311;26;19929;-80
2024/04/14 14:27:41;;;;;;;;;;;18.40;73.70;;;;;;5314734;26;19926;-79
2024/04/14 14:30:07;;;;;;;;;;;18.30;73.40;;;;;;5314475;26;19969;-80
2024/04/14 14:49:16;;;;;;;;;;;18.60;70.50;;;;;;6083291;21;19928;-89
2024/04/14 14:54:38;;;;;;;;;;;18.90;72.00;;;;;;5736235;21;19938;-88
2024/04/14 18:39:03;;;;;;;;;;;13.60;88.10;;;;;;5499209;21;19934;-80
2024/04/14 18:41:36;;;;;;;;;;;13.60;88.10;;;;;;5359619;26;19930;-80
2024/04/14 18:44:09;;;;;;;;;;;13.70;88.10;;;;;;5361044;26;19937;-80
2024/04/14 18:46:37;;;;;;;;;;;13.70;87.80;;;;;;5291914;26;19976;-80
2024/04/14 18:49:15;;;;;;;;;;;13.70;88.00;;;;;;5302572;26;19949;-80
2024/04/14 18:51:45;;;;;;;;;;;13.80;88.20;;;;;;5290601;26;20257;-80
2024/04/14 18:54:11;;;;;;;;;;;13.70;88.40;;;;;;5331285;26;19930;-80
2024/04/14 18:56:45;;;;;;;;;;;13.80;88.60;;;;;;5281856;26;20027;-80
2024/04/14 19:01:49;;;;;;;;;;;13.80;88.90;;;;;;5786946;21;20329;-81
2024/04/14 19:04:15;;;;;;;;;;;13.80;88.70;;;;;;5331946;26;19958;-81
2024/04/14 19:06:47;;;;;;;;;;;13.90;89.00;;;;;;5358920;26;19937;-81
2024/04/14 19:09:18;;;;;;;;;;;13.80;89.10;;;;;;5331659;26;19965;-81
2024/04/14 19:11:44;;;;;;;;;;;13.60;89.30;;;;;;5339028;26;19941;-81
2024/04/14 19:14:10;;;;;;;;;;;13.40;89.30;;;;;;5272885;26;19934;-81
2024/04/14 19:16:38;;;;;;;;;;;13.60;89.20;;;;;;5291679;26;19936;-81
2024/04/14 19:19:10;;;;;;;;;;;13.60;89.40;;;;;;5364944;26;19939;-81
2024/04/14 19:21:36;;;;;;;;;;;13.40;88.10;;;;;;5363580;26;19971;-80
2024/04/14 19:24:03;;;;;;;;;;;13.50;88.00;;;;;;5363125;26;19926;-80
2024/04/14 19:26:30;;;;;;;;;;;13.40;87.80;;;;;;5332895;26;19930;-80
2024/04/14 19:29:00;;;;;;;;;;;13.50;87.20;;;;;;5310923;26;19941;-80
2024/04/14 19:31:26;;;;;;;;;;;13.40;86.50;;;;;;5317027;26;19937;-80
2024/04/14 19:33:54;;;;;;;;;;;13.30;87.00;;;;;;5323403;26;19934;-80
2024/04/14 19:36:23;;;;;;;;;;;13.40;87.00;;;;;;5328699;26;19992;-80
2024/04/14 19:38:49;;;;;;;;;;;13.30;86.70;;;;;;5332425;26;19938;-80
2024/04/14 19:41:18;;;;;;;;;;;13.30;87.00;;;;;;5349930;26;20326;-80
2024/04/14 19:43:50;;;;;;;;;;;13.30;87.10;;;;;;5348669;26;19934;-80
2024/04/14 19:46:16;;;;;;;;;;;13.30;87.10;;;;;;5271461;26;19934;-80
2024/04/14 19:48:47;;;;;;;;;;;13.40;87.10;;;;;;5290785;26;19930;-80
2024/04/14 19:51:14;;;;;;;;;;;13.40;87.00;;;;;;5321946;26;19937;-80
2024/04/14 19:53:40;;;;;;;;;;;13.40;86.90;;;;;;5326097;26;19930;-80
2024/04/14 19:56:14;;;;;;;;;;;13.40;87.20;;;;;;5353794;26;19940;-80
2024/04/14 19:58:49;;;;;;;;;;;13.40;87.20;;;;;;5294299;26;19930;-80
2024/04/14 20:01:17;;;;;;;;;;;13.40;87.30;;;;;;5319436;26;20000;-80
2024/04/14 20:03:43;;;;;;;;;;;13.40;87.20;;;;;;5303824;26;19930;-80
2024/04/14 20:06:09;;;;;;;;;;;13.50;87.50;;;;;;5319752;26;20351;-80
2024/04/14 20:08:35;;;;;;;;;;;13.40;87.30;;;;;;5318844;26;19937;-80
2024/04/14 20:11:00;;;;;;;;;;;13.40;87.40;;;;;;5318997;26;19930;-80
2024/04/14 20:13:26;;;;;;;;;;;13.40;87.20;;;;;;5322542;26;19966;-80
2024/04/14 20:15:52;;;;;;;;;;;13.40;87.40;;;;;;5298252;26;19944;-80
2024/04/14 20:18:17;;;;;;;;;;;13.40;87.50;;;;;;5325415;26;19930;-80
2024/04/14 20:20:43;;;;;;;;;;;13.40;87.70;;;;;;5331888;26;19940;-80
2024/04/14 20:23:10;;;;;;;;;;;13.40;87.50;;;;;;5351158;26;19976;-80
2024/04/14 20:25:36;;;;;;;;;;;13.30;87.60;;;;;;5317586;26;19941;-80
2024/04/14 20:28:02;;;;;;;;;;;13.30;88.00;;;;;;5362937;26;19930;-80
2024/04/14 20:30:29;;;;;;;;;;;13.30;87.80;;;;;;5289298;26;20350;-80
2024/04/14 20:32:55;;;;;;;;;;;13.40;88.00;;;;;;5311030;26;19996;-80
2024/04/14 20:35:21;;;;;;;;;;;13.30;87.90;;;;;;5298680;26;19934;-80
2024/04/14 20:37:46;;;;;;;;;;;13.40;87.80;;;;;;5326553;26;19999;-80
2024/04/14 20:40:12;;;;;;;;;;;13.20;87.50;;;;;;5356281;26;19969;-80
2024/04/14 20:42:38;;;;;;;;;;;13.40;88.00;;;;;;5322500;26;19930;-80
2024/04/14 20:45:05;;;;;;;;;;;13.20;87.90;;;;;;5323008;26;19958;-80
2024/04/14 20:47:31;;;;;;;;;;;13.40;87.90;;;;;;5267759;26;19930;-80
2024/04/14 20:49:59;;;;;;;;;;;13.40;88.10;;;;;;5292006;26;19937;-80
2024/04/14 20:52:27;;;;;;;;;;;13.30;88.20;;;;;;5334355;26;20697;-80
2024/04/14 20:54:53;;;;;;;;;;;13.30;88.30;;;;;;5374932;26;19937;-80
2024/04/14 20:57:20;;;;;;;;;;;13.20;88.30;;;;;;5295715;26;19930;-80
2024/04/14 20:59:46;;;;;;;;;;;13.20;88.10;;;;;;5340736;26;20354;-80
2024/04/14 21:02:17;;;;;;;;;;;13.30;88.40;;;;;;5328281;26;20020;-80
2024/04/14 21:04:46;;;;;;;;;;;13.20;88.50;;;;;;5299995;26;20669;-80
2024/04/14 21:07:17;;;;;;;;;;;13.20;88.70;;;;;;5356401;26;20261;-80
2024/04/14 21:09:44;;;;;;;;;;;13.10;88.60;;;;;;5357329;26;19980;-80